Terminal Aerodrome Forecast
Issued by NWS

Home | Current Version | Previous Version | Text Only | Print | Product List | Glossary On
Versions: 1 2 3 4 5 6 7 8 9 10 11 12 13 14 15 16
231
FTUS45 KABQ 262026 AAA
TAFLVS
TAF AMD
KLVS 262026Z 2620/2718 22013G23KT P6SM VCSH SCT060 BKN090
      TEMPO 2621/2624 VRB20G30KT 6SM -TSRA BKN060CB
     FM270100 20008KT P6SM VCSH BKN070
     FM270400 19007KT P6SM BKN100
     FM271000 VRB06KT P6SM SCT100=

USA.gov is the U.S. government's official web portal to all federal, state and local government web resources and services.